Krizevci, Croatia
Current Conditions -  °F | °C
As of 3:30 PM on Monday 20 Oct 2014 (Local Time) from LDZA Reporting Station
Clear Clear  
Wind Chill: 77°   Ceiling: Unl
Heat Index: 79°   Visibility: 6mi
Dew Point: 59°   Wind: 8mph
Humidity: 54%   Direction: 230°SW
Pressure: 30.03"   Gusts: NA
Location:  46.02°N, 16.55°E
Report Text: LDZA 201330Z 23007KT CAVOK 25/15 Q1017 NOSIG
Loading
Personal Weather Stations






























Interactive Weather Map
Tropical Storm Tracking
New forecast layout! Learn more

10-Day Weather Forecast

Advertisements
Track Severe Weather on mobile